Time;durP1;ratioP1;P1;durP2;ratioP2;P2;SDS_P1;SDS_P2;PMS_P1;PMS_P2;Temp;Humidity;BMP_temperature;BMP_pressure;BME280_temperature;BME280_humidity;BME280_pressure;Samples;Min_cycle;Max_cycle;Signal;HPM_P1;HPM_P2
2023/05/11 00:00:31;;;;;;;21.73;3.77;;;11.30;99.90;;;;;;5091070;28;20199;-59
2023/05/11 00:02:57;;;;;;;22.30;3.60;;;11.20;99.90;;;;;;5091066;28;20627;-59
2023/05/11 00:05:23;;;;;;;27.60;4.53;;;11.30;99.90;;;;;;5091083;28;20168;-59
2023/05/11 00:07:48;;;;;;;28.70;3.73;;;11.20;99.90;;;;;;5072631;28;20207;-59
2023/05/11 00:10:14;;;;;;;22.93;3.40;;;11.30;99.90;;;;;;5090932;28;20174;-59
2023/05/11 00:12:40;;;;;;;20.13;4.13;;;11.20;99.90;;;;;;5090933;28;20175;-59
2023/05/11 00:15:06;;;;;;;20.50;3.33;;;11.20;99.90;;;;;;5090957;28;20210;-59
2023/05/11 00:17:31;;;;;;;22.67;4.17;;;11.20;99.90;;;;;;5090831;28;20667;-59
2023/05/11 00:19:57;;;;;;;23.37;4.17;;;11.10;99.90;;;;;;5090723;28;20174;-59
2023/05/11 00:22:22;;;;;;;19.20;4.30;;;11.20;99.90;;;;;;5072564;28;20219;-59
2023/05/11 00:24:48;;;;;;;23.00;4.63;;;11.20;99.90;;;;;;5090499;28;20187;-59
2023/05/11 00:27:14;;;;;;;29.03;4.70;;;11.20;99.90;;;;;;5090636;28;20736;-58
2023/05/11 00:29:39;;;;;;;26.80;4.27;;;11.20;99.90;;;;;;5090747;28;20505;-59
2023/05/11 00:32:05;;;;;;;25.53;4.30;;;11.20;99.90;;;;;;5090872;28;20233;-59
2023/05/11 00:34:31;;;;;;;27.30;4.43;;;11.30;99.90;;;;;;5090626;28;20711;-59
2023/05/11 00:36:57;;;;;;;24.40;4.77;;;11.20;99.90;;;;;;5090842;28;20175;-59
2023/05/11 00:39:22;;;;;;;25.33;4.60;;;11.20;99.90;;;;;;5090520;28;20164;-59
2023/05/11 00:41:48;;;;;;;23.30;4.80;;;11.10;99.90;;;;;;5090762;28;20671;-59
2023/05/11 00:44:13;;;;;;;29.30;4.43;;;11.10;99.90;;;;;;5090744;28;20164;-59
2023/05/11 00:46:39;;;;;;;23.17;4.23;;;11.10;99.90;;;;;;5090952;28;20302;-59
2023/05/11 00:49:06;;;;;;;27.57;4.23;;;11.00;99.90;;;;;;5090745;28;20653;-59
2023/05/11 00:51:32;;;;;;;24.30;4.53;;;11.90;99.90;;;;;;5090563;28;20237;-59
2023/05/11 00:53:59;;;;;;;25.87;5.10;;;11.00;99.90;;;;;;5090545;28;20656;-59
2023/05/11 00:56:25;;;;;;;24.30;4.37;;;11.00;99.90;;;;;;5090529;28;20168;-60
2023/05/11 00:58:51;;;;;;;26.50;4.83;;;11.00;99.90;;;;;;5090581;28;20410;-60
2023/05/11 01:01:17;;;;;;;22.23;3.97;;;11.00;99.90;;;;;;5090783;28;20180;-60
2023/05/11 01:03:43;;;;;;;22.13;4.77;;;11.00;99.90;;;;;;5090388;28;20590;-60
2023/05/11 01:06:21;;;;;;;26.97;4.63;;;11.00;99.90;;;;;;5090410;28;20207;-60
2023/05/11 01:09:04;;;;;;;20.00;4.37;;;10.90;99.90;;;;;;5092707;28;20197;-60
2023/05/11 01:11:40;;;;;;;20.23;4.33;;;11.00;99.90;;;;;;5094160;28;20715;-61
2023/05/11 01:14:22;;;;;;;22.63;4.27;;;11.10;99.90;;;;;;5094146;28;20262;-58
2023/05/11 01:16:54;;;;;;;22.30;4.50;;;11.10;99.90;;;;;;5094008;28;20672;-61
2023/05/11 01:19:58;;;;;;;24.93;4.30;;;11.10;99.90;;;;;;5094151;28;20168;-59
2023/05/11 01:22:32;;;;;;;22.97;4.37;;;11.10;99.90;;;;;;5093541;28;20663;-59
2023/05/11 01:25:09;;;;;;;21.23;4.37;;;11.20;99.90;;;;;;5093910;28;20171;-58
2023/05/11 01:28:12;;;;;;;22.07;4.90;;;11.20;99.90;;;;;;5093846;28;20638;-59
2023/05/11 01:30:50;;;;;;;25.60;4.47;;;11.30;99.90;;;;;;5093817;28;20183;-59
2023/05/11 01:33:20;;;;;;;22.53;3.77;;;11.30;99.90;;;;;;5093579;28;20214;-59
2023/05/11 01:35:51;;;;;;;18.40;4.37;;;11.40;99.90;;;;;;5093746;28;20164;-59
2023/05/11 01:38:20;;;;;;;25.30;3.90;;;11.30;99.90;;;;;;5093497;28;20297;-59
2023/05/11 01:40:53;;;;;;;20.73;4.00;;;11.50;99.90;;;;;;5093547;28;20397;-59
2023/05/11 01:43:21;;;;;;;23.10;3.93;;;11.50;99.90;;;;;;5093399;28;20629;-59
2023/05/11 01:45:49;;;;;;;20.40;4.60;;;11.50;99.90;;;;;;5091754;28;20172;-58
2023/05/11 01:48:22;;;;;;;19.37;4.47;;;11.50;99.90;;;;;;5081902;28;20183;-58
2023/05/11 01:50:49;;;;;;;20.23;4.20;;;11.50;99.90;;;;;;5109108;28;20163;-59
2023/05/11 01:53:16;;;;;;;20.40;3.87;;;11.60;99.90;;;;;;5093297;28;20180;-58
2023/05/11 01:55:44;;;;;;;20.37;4.67;;;11.60;99.90;;;;;;5093250;28;20172;-58
2023/05/11 01:58:13;;;;;;;20.70;4.43;;;11.70;99.90;;;;;;5093087;28;20179;-58
2023/05/11 02:00:42;;;;;;;24.77;4.43;;;11.60;99.90;;;;;;5093034;28;20178;-59
2023/05/11 02:03:08;;;;;;;26.10;4.83;;;11.60;99.90;;;;;;5093200;28;20176;-58
2023/05/11 02:05:34;;;;;;;13.17;4.23;;;;;;;;;;5093090;28;20214;-59
2023/05/11 02:08:03;;;;;;;29.53;5.93;;;11.60;99.90;;;;;;5092981;28;20216;-59
2023/05/11 02:10:31;;;;;;;17.90;5.50;;;11.60;99.90;;;;;;5093202;28;20267;-59
2023/05/11 02:12:57;;;;;;;18.47;5.20;;;11.50;99.90;;;;;;5093476;28;20217;-59
2023/05/11 02:15:24;;;;;;;26.10;6.00;;;11.50;99.90;;;;;;5093025;28;20167;-59
2023/05/11 02:17:52;;;;;;;23.87;6.40;;;11.50;99.90;;;;;;5093090;28;20176;-59
2023/05/11 02:20:19;;;;;;;34.63;5.50;;;11.40;99.90;;;;;;5091915;28;20168;-59
2023/05/11 02:22:46;;;;;;;21.57;5.43;;;11.40;99.90;;;;;;5093020;28;20172;-60
2023/05/11 02:25:13;;;;;;;25.90;6.60;;;11.40;99.90;;;;;;5092732;28;20164;-58
2023/05/11 02:27:39;;;;;;;17.20;5.23;;;11.30;99.90;;;;;;5092695;28;20219;-59
2023/05/11 02:30:10;;;;;;;22.23;5.43;;;11.30;99.90;;;;;;5092635;28;20737;-58
2023/05/11 02:32:40;;;;;;;25.50;5.93;;;11.30;99.90;;;;;;5092653;28;20175;-59
2023/05/11 02:35:15;;;;;;;20.13;5.10;;;11.20;99.90;;;;;;5092541;28;20228;-58
2023/05/11 02:37:45;;;;;;;28.50;5.70;;;11.20;99.90;;;;;;5092530;28;20220;-58
2023/05/11 02:40:16;;;;;;;22.13;5.60;;;11.20;99.90;;;;;;5092570;28;20250;-59
2023/05/11 02:42:43;;;;;;;26.77;5.47;;;11.10;99.90;;;;;;5092501;28;20160;-58
2023/05/11 02:45:13;;;;;;;23.27;5.10;;;11.10;99.90;;;;;;5092372;28;20168;-58
2023/05/11 02:47:44;;;;;;;19.37;4.93;;;11.00;99.90;;;;;;5092176;28;20817;-59
2023/05/11 02:50:11;;;;;;;20.70;5.40;;;11.00;99.90;;;;;;5092281;28;20268;-58
2023/05/11 02:52:43;;;;;;;24.07;4.80;;;11.00;99.90;;;;;;5092136;28;20176;-59
2023/05/11 02:55:10;;;;;;;20.33;5.43;;;10.90;99.90;;;;;;5092301;28;20171;-58
2023/05/11 02:57:36;;;;;;;20.23;5.20;;;10.80;99.90;;;;;;5092293;28;20180;-59
2023/05/11 03:00:02;;;;;;;23.60;4.93;;;10.90;99.90;;;;;;5091517;28;20168;-58
2023/05/11 03:02:28;;;;;;;19.80;5.60;;;10.80;99.90;;;;;;5091997;28;20187;-58
2023/05/11 03:04:53;;;;;;;30.63;6.70;;;10.80;99.90;;;;;;5091780;28;20175;-59
2023/05/11 03:07:19;;;;;;;19.40;5.20;;;10.70;99.90;;;;;;5080756;28;20212;-59
2023/05/11 03:09:45;;;;;;;23.70;5.17;;;10.70;99.90;;;;;;5074024;28;20252;-59
2023/05/11 03:12:10;;;;;;;28.40;5.67;;;10.70;99.90;;;;;;5091877;28;20176;-59
2023/05/11 03:14:37;;;;;;;19.63;5.37;;;10.60;99.90;;;;;;5075166;28;20636;-60
2023/05/11 03:17:05;;;;;;;28.47;5.23;;;10.60;99.90;;;;;;5088224;28;20188;-59
2023/05/11 03:19:31;;;;;;;23.13;4.40;;;10.70;99.90;;;;;;5078300;28;20225;-59
2023/05/11 03:21:58;;;;;;;20.73;4.90;;;10.70;99.90;;;;;;5077829;28;20199;-59
2023/05/11 03:24:25;;;;;;;19.40;4.60;;;10.70;99.90;;;;;;5071491;28;20168;-59
2023/05/11 03:26:53;;;;;;;16.20;4.43;;;10.70;99.90;;;;;;5090438;28;20215;-59
2023/05/11 03:29:20;;;;;;;22.27;4.60;;;10.60;99.90;;;;;;5089879;28;20194;-59
2023/05/11 03:31:45;;;;;;;22.30;4.67;;;10.60;99.90;;;;;;5076646;28;20241;-59
2023/05/11 03:34:11;;;;;;;24.97;4.27;;;10.50;99.90;;;;;;5091156;28;20215;-59
2023/05/11 03:36:39;;;;;;;22.90;4.30;;;10.50;99.90;;;;;;5079660;28;20191;-59
2023/05/11 03:39:06;;;;;;;18.23;4.47;;;10.50;99.90;;;;;;5085721;28;20576;-59
2023/05/11 03:41:33;;;;;;;19.37;4.13;;;10.40;99.90;;;;;;5074645;28;20191;-60
2023/05/11 03:44:01;;;;;;;23.60;4.73;;;10.40;99.90;;;;;;5070957;28;20180;-59
2023/05/11 03:46:28;;;;;;;18.23;4.33;;;10.60;99.90;;;;;;5081193;28;20215;-59
2023/05/11 03:48:54;;;;;;;23.90;4.10;;;10.30;99.90;;;;;;5090994;28;20183;-59
2023/05/11 03:51:20;;;;;;;15.37;4.30;;;10.30;99.90;;;;;;5077188;28;20173;-58
2023/05/11 03:53:46;;;;;;;20.20;4.63;;;10.30;99.90;;;;;;5089266;28;20644;-60
2023/05/11 03:56:11;;;;;;;27.20;5.10;;;10.20;99.90;;;;;;5089814;28;20179;-60
2023/05/11 03:58:41;;;;;;;19.80;5.17;;;10.30;99.90;;;;;;5091295;28;20658;-60
2023/05/11 04:01:10;;;;;;;24.33;5.43;;;10.30;99.90;;;;;;5082006;28;20183;-60
2023/05/11 04:03:47;;;;;;;25.20;5.13;;;10.30;99.90;;;;;;5071007;28;20246;-60
2023/05/11 04:06:12;;;;;;;28.03;5.70;;;10.40;99.90;;;;;;5073379;28;20196;-60
2023/05/11 04:08:38;;;;;;;27.53;6.97;;;10.30;99.90;;;;;;5090892;28;20183;-60
2023/05/11 04:11:04;;;;;;;20.37;6.93;;;10.30;99.90;;;;;;5091055;28;20663;-60
2023/05/11 04:13:30;;;;;;;27.60;7.80;;;10.40;99.90;;;;;;5090860;28;20186;-60
2023/05/11 04:15:55;;;;;;;21.67;5.60;;;10.40;99.90;;;;;;5090870;28;20233;-60
2023/05/11 04:18:21;;;;;;;21.37;5.80;;;10.40;99.90;;;;;;5072955;28;20223;-60
2023/05/11 04:20:46;;;;;;;21.93;6.07;;;10.40;99.90;;;;;;5091165;28;20225;-60
2023/05/11 04:23:12;;;;;;;17.13;5.67;;;10.30;99.90;;;;;;5090866;28;20176;-60
2023/05/11 04:25:37;;;;;;;26.10;6.10;;;10.30;99.90;;;;;;5090724;28;20183;-60
2023/05/11 04:28:03;;;;;;;23.23;8.20;;;10.20;99.90;;;;;;5090640;28;20219;-60
2023/05/11 04:30:29;;;;;;;21.50;8.03;;;10.20;99.90;;;;;;5090785;28;20593;-60
2023/05/11 04:32:54;;;;;;;22.90;8.33;;;10.30;99.90;;;;;;5090636;28;20187;-60
2023/05/11 04:35:20;;;;;;;27.40;8.53;;;10.40;99.90;;;;;;5072476;28;20739;-60
2023/05/11 04:37:46;;;;;;;27.60;9.50;;;10.50;99.90;;;;;;5090739;28;20675;-60
2023/05/11 04:40:12;;;;;;;24.33;9.20;;;10.60;99.90;;;;;;5090631;28;20168;-59
2023/05/11 04:42:38;;;;;;;22.20;8.43;;;10.70;99.90;;;;;;5091333;28;20233;-59
2023/05/11 04:45:04;;;;;;;20.97;8.23;;;10.70;99.90;;;;;;5094779;28;20183;-62
2023/05/11 04:47:29;;;;;;;27.57;8.20;;;10.60;99.90;;;;;;5094379;28;20218;-60
2023/05/11 04:49:55;;;;;;;21.73;7.77;;;10.60;99.90;;;;;;5094700;28;20172;-59
2023/05/11 04:52:20;;;;;;;25.43;7.77;;;10.60;99.90;;;;;;5094694;28;20557;-60
2023/05/11 04:54:46;;;;;;;23.17;8.27;;;10.60;99.90;;;;;;5094608;28;20621;-59
2023/05/11 04:57:12;;;;;;;23.93;10.00;;;10.60;99.90;;;;;;5094580;28;20176;-59
2023/05/11 04:59:37;;;;;;;26.77;9.80;;;10.60;99.90;;;;;;5094313;28;20438;-59
2023/05/11 05:02:03;;;;;;;24.37;9.43;;;10.70;99.90;;;;;;5094246;28;20175;-59
2023/05/11 05:04:28;;;;;;;20.50;9.27;;;10.70;99.90;;;;;;5094302;28;20176;-59
2023/05/11 05:06:54;;;;;;;27.47;9.93;;;10.70;99.90;;;;;;5094064;28;21989;-59
2023/05/11 05:09:19;;;;;;;24.80;10.20;;;10.70;99.90;;;;;;5092629;28;20570;-60
2023/05/11 05:11:45;;;;;;;31.77;10.43;;;10.70;99.90;;;;;;5092545;28;20217;-60
2023/05/11 05:14:11;;;;;;;24.70;10.60;;;10.80;99.90;;;;;;5073869;28;20683;-59
2023/05/11 05:16:36;;;;;;;25.47;10.00;;;10.90;99.90;;;;;;5080362;28;20321;-59
2023/05/11 05:19:02;;;;;;;24.80;9.70;;;11.10;99.90;;;;;;5094041;28;20309;-59
2023/05/11 05:21:28;;;;;;;31.23;10.13;;;11.20;99.90;;;;;;5088068;28;20179;-59
2023/05/11 05:23:53;;;;;;;26.37;10.37;;;11.20;99.90;;;;;;5080585;28;20728;-59
2023/05/11 05:26:20;;;;;;;24.87;10.40;;;11.30;99.90;;;;;;5081240;28;20204;-59
2023/05/11 05:28:46;;;;;;;25.47;9.50;;;11.30;99.90;;;;;;5093994;28;20201;-59
2023/05/11 05:31:11;;;;;;;22.90;9.70;;;11.40;99.90;;;;;;5093651;28;20176;-59
2023/05/11 05:33:37;;;;;;;21.93;9.47;;;11.30;99.90;;;;;;5079404;28;20212;-59
2023/05/11 05:36:03;;;;;;;26.43;9.87;;;11.30;99.90;;;;;;5073472;28;20292;-58
2023/05/11 05:38:28;;;;;;;27.20;10.20;;;11.30;99.90;;;;;;5073460;28;20264;-58
2023/05/11 05:40:54;;;;;;;22.67;9.50;;;11.40;99.90;;;;;;5073435;28;20200;-58
2023/05/11 05:43:19;;;;;;;20.17;9.67;;;11.50;99.90;;;;;;5083834;28;20222;-59
2023/05/11 05:45:45;;;;;;;26.33;9.77;;;11.50;99.90;;;;;;5093470;28;20179;-57
2023/05/11 05:48:11;;;;;;;26.63;10.07;;;11.50;99.90;;;;;;5093313;28;20735;-58
2023/05/11 05:50:36;;;;;;;26.20;10.53;;;11.50;99.90;;;;;;5093308;28;20179;-57
2023/05/11 05:53:02;;;;;;;24.90;10.43;;;11.50;99.90;;;;;;5093374;28;20172;-57
2023/05/11 05:55:27;;;;;;;24.20;9.73;;;11.50;99.90;;;;;;5093222;28;20199;-59
2023/05/11 05:57:53;;;;;;;26.87;10.80;;;11.60;99.90;;;;;;5093364;28;20640;-58
2023/05/11 06:00:19;;;;;;;34.70;10.63;;;11.50;99.90;;;;;;5093067;28;20319;-58
2023/05/11 06:02:44;;;;;;;26.80;10.73;;;11.60;99.90;;;;;;5093068;28;20504;-57
2023/05/11 06:05:10;;;;;;;31.37;10.20;;;11.60;99.90;;;;;;5093300;28;20191;-58
2023/05/11 06:07:36;;;;;;;21.43;10.20;;;11.60;99.90;;;;;;5092980;28;20549;-58
2023/05/11 06:10:02;;;;;;;26.40;9.33;;;11.70;99.90;;;;;;5092956;28;20172;-58
2023/05/11 06:12:27;;;;;;;28.77;10.50;;;11.80;99.90;;;;;;5092815;28;20179;-58
2023/05/11 06:14:53;;;;;;;21.50;9.57;;;11.70;99.90;;;;;;5093225;28;20240;-58
2023/05/11 06:17:18;;;;;;;28.60;10.27;;;11.90;99.90;;;;;;5092823;28;20642;-58
2023/05/11 06:19:45;;;;;;;24.20;9.77;;;12.00;99.90;;;;;;5092695;28;20196;-59
2023/05/11 06:22:10;;;;;;;24.87;9.50;;;12.10;99.90;;;;;;5092941;28;20176;-57
2023/05/11 06:24:36;;;;;;;23.27;9.30;;;12.30;99.90;;;;;;5092864;28;20674;-58
2023/05/11 06:27:02;;;;;;;23.80;9.20;;;12.40;99.90;;;;;;5092714;28;20301;-57
2023/05/11 06:29:27;;;;;;;27.97;9.03;;;12.40;99.90;;;;;;5088893;28;20248;-57
2023/05/11 06:31:54;;;;;;;22.53;8.40;;;12.50;99.90;;;;;;5091992;28;20271;-59
2023/05/11 06:34:21;;;;;;;22.65;8.63;;;12.60;99.90;;;;;;5090071;28;20216;-60
2023/05/11 06:36:47;;;;;;;23.37;8.33;;;12.80;99.90;;;;;;5079034;28;20182;-59
2023/05/11 06:39:13;;;;;;;27.57;8.53;;;12.90;99.90;;;;;;5086903;28;20176;-68
2023/05/11 06:41:39;;;;;;;25.33;7.53;;;12.90;99.90;;;;;;5090491;28;20715;-67
2023/05/11 06:44:04;;;;;;;21.15;7.78;;;13.00;99.90;;;;;;5092068;28;20256;-67
2023/05/11 06:46:30;;;;;;;17.08;7.18;;;13.10;99.90;;;;;;5083861;28;20217;-66
2023/05/11 06:48:56;;;;;;;18.48;6.82;;;13.10;99.90;;;;;;5080759;28;20184;-67
2023/05/11 06:51:22;;;;;;;26.67;7.55;;;13.20;99.90;;;;;;5089013;28;20175;-67
2023/05/11 06:53:49;;;;;;;16.08;6.40;;;13.30;99.90;;;;;;5092198;28;20178;-67
2023/05/11 06:56:14;;;;;;;20.13;7.13;;;13.30;99.90;;;;;;5092036;28;20160;-67
2023/05/11 06:58:40;;;;;;;20.52;6.25;;;13.40;99.90;;;;;;5073464;28;20254;-66
2023/05/11 07:01:06;;;;;;;22.35;6.35;;;13.50;99.90;;;;;;5092216;28;20168;-66
2023/05/11 07:03:35;;;;;;;31.08;6.30;;;13.60;99.90;;;;;;5090448;28;20765;-66
2023/05/11 07:06:01;;;;;;;20.55;6.00;;;13.80;99.90;;;;;;5071113;28;20696;-65
2023/05/11 07:08:27;;;;;;;12.20;5.75;;;13.80;99.90;;;;;;5071530;28;20310;-64
2023/05/11 07:10:53;;;;;;;19.60;5.43;;;14.00;99.90;;;;;;5071507;28;20676;-67
2023/05/11 07:13:18;;;;;;;13.77;4.60;;;14.10;99.90;;;;;;5073054;28;20184;-66
2023/05/11 07:15:44;;;;;;;23.33;5.90;;;14.40;99.90;;;;;;5071635;28;20662;-66
2023/05/11 07:18:10;;;;;;;14.73;5.28;;;14.50;99.90;;;;;;5087729;28;20168;-66
2023/05/11 07:20:36;;;;;;;21.48;4.95;;;14.70;99.90;;;;;;5071488;28;20191;-66
2023/05/11 07:23:02;;;;;;;20.77;5.55;;;14.70;99.90;;;;;;5074257;28;20668;-66
2023/05/11 07:25:28;;;;;;;25.80;6.05;;;14.60;99.90;;;;;;5090784;28;20655;-65
2023/05/11 07:27:54;;;;;;;19.08;5.68;;;14.60;99.90;;;;;;5084261;28;20220;-66
2023/05/11 07:30:20;;;;;;;18.20;5.00;;;14.60;99.90;;;;;;5085206;28;20178;-64
2023/05/11 07:32:46;;;;;;;17.90;4.18;;;14.50;99.90;;;;;;5087462;28;20175;-63
2023/05/11 07:35:11;;;;;;;14.63;4.07;;;14.30;99.90;;;;;;5089902;28;20219;-66
2023/05/11 07:37:37;;;;;;;10.40;4.40;;;14.30;99.90;;;;;;5080588;28;20660;-66
2023/05/11 07:40:03;;;;;;;15.73;4.60;;;14.30;99.90;;;;;;5072510;28;20212;-64
2023/05/11 07:42:29;;;;;;;16.45;3.60;;;14.30;99.90;;;;;;5082363;28;20187;-65
2023/05/11 07:44:54;;;;;;;12.13;3.40;;;14.20;99.90;;;;;;5091204;28;20168;-65
2023/05/11 07:47:20;;;;;;;14.80;3.88;;;14.30;99.90;;;;;;5090187;28;20216;-66
2023/05/11 07:49:49;;;;;;;15.10;4.25;;;14.20;99.90;;;;;;5077576;28;20540;-59
2023/05/11 07:52:15;;;;;;;17.23;4.05;;;14.30;99.90;;;;;;5073200;28;20263;-69
2023/05/11 07:54:40;;;;;;;13.13;3.92;;;14.30;99.90;;;;;;5091136;28;20298;-65
2023/05/11 07:57:06;;;;;;;13.35;3.63;;;14.30;99.90;;;;;;5091035;28;20172;-64
2023/05/11 07:59:32;;;;;;;9.68;3.60;;;14.10;99.90;;;;;;5091054;28;20168;-70
2023/05/11 08:01:58;;;;;;;21.38;3.63;;;14.10;99.90;;;;;;5088824;28;20685;-69
2023/05/11 08:04:26;;;;;;;14.20;3.20;;;14.00;99.90;;;;;;5076081;28;20590;-65
2023/05/11 08:06:51;;;;;;;13.07;3.42;;;14.20;99.90;;;;;;5087951;28;20324;-63
2023/05/11 08:09:17;;;;;;;17.45;3.30;;;14.10;99.90;;;;;;5077766;28;20640;-62
2023/05/11 08:11:42;;;;;;;15.70;3.05;;;14.20;99.90;;;;;;5089564;28;20218;-62
2023/05/11 08:14:08;;;;;;;9.75;2.83;;;14.30;99.90;;;;;;5073915;28;20175;-63
2023/05/11 08:16:35;;;;;;;18.00;3.33;;;14.60;99.90;;;;;;5075775;28;20256;-62
2023/05/11 08:19:01;;;;;;;11.10;2.95;;;14.90;99.90;;;;;;5092938;28;20172;-63
2023/05/11 08:21:27;;;;;;;12.43;2.05;;;15.10;99.90;;;;;;5094914;28;20174;-63
2023/05/11 08:23:52;;;;;;;12.20;2.42;;;15.20;99.90;;;;;;5090117;28;20176;-63
2023/05/11 08:26:18;;;;;;;9.77;2.45;;;15.40;99.90;;;;;;5094318;28;20230;-62
2023/05/11 08:28:44;;;;;;;10.57;2.53;;;15.40;99.90;;;;;;5074360;28;20669;-62
2023/05/11 08:31:10;;;;;;;14.05;2.88;;;15.30;99.90;;;;;;5074668;28;20268;-62
2023/05/11 08:33:36;;;;;;;18.17;2.67;;;15.20;99.90;;;;;;5074338;28;20715;-63
2023/05/11 08:36:02;;;;;;;12.20;2.38;;;14.90;99.90;;;;;;5079725;28;20185;-63
2023/05/11 08:38:28;;;;;;;11.90;2.55;;;15.00;99.90;;;;;;5074422;28;20168;-62
2023/05/11 08:40:53;;;;;;;9.98;2.30;;;15.00;99.90;;;;;;5074322;28;20168;-62
2023/05/11 08:43:19;;;;;;;11.23;2.28;;;15.10;99.90;;;;;;5074086;28;20310;-62
2023/05/11 08:45:47;;;;;;;9.23;2.05;;;15.30;99.90;;;;;;5074339;28;20168;-61
2023/05/11 08:48:19;;;;;;;14.05;2.15;;;16.10;99.90;;;;;;5074180;28;20230;-62
2023/05/11 08:50:46;;;;;;;9.82;1.88;;;16.70;99.90;;;;;;5074321;28;20183;-62
2023/05/11 08:53:12;;;;;;;12.65;1.77;;;16.70;99.90;;;;;;5074106;28;20180;-61
2023/05/11 08:55:40;;;;;;;17.55;2.40;;;16.70;99.90;;;;;;5074150;28;20670;-63
2023/05/11 08:58:06;;;;;;;9.02;1.70;;;16.80;99.90;;;;;;5074247;28;20644;-62
2023/05/11 09:00:33;;;;;;;11.77;2.13;;;16.60;99.90;;;;;;5074077;28;20177;-63
2023/05/11 09:02:59;;;;;;;10.32;1.75;;;16.40;99.90;;;;;;5074000;28;20280;-62
2023/05/11 09:05:26;;;;;;;5.80;1.95;;;17.00;99.90;;;;;;5073986;28;20172;-63
2023/05/11 09:07:57;;;;;;;11.65;1.73;;;16.80;99.90;;;;;;5073855;28;20212;-62
2023/05/11 09:10:23;;;;;;;12.10;2.17;;;16.80;99.90;;;;;;5073941;28;20161;-62
2023/05/11 09:12:49;;;;;;;6.32;2.00;;;16.70;99.90;;;;;;5086952;28;20176;-61
2023/05/11 09:15:14;;;;;;;7.72;1.67;;;16.60;99.90;;;;;;5094074;28;20172;-62
2023/05/11 09:17:40;;;;;;;10.48;2.08;;;16.20;99.90;;;;;;5093921;28;20270;-62
2023/05/11 09:20:08;;;;;;;9.45;1.80;;;16.00;99.90;;;;;;5092590;28;20202;-61
2023/05/11 09:22:45;;;;;;;14.07;2.25;;;15.90;99.90;;;;;;5093690;28;20234;-61
2023/05/11 09:25:12;;;;;;;12.45;2.35;;;16.00;99.90;;;;;;5093873;28;20171;-61
2023/05/11 09:27:42;;;;;;;10.48;2.03;;;16.10;99.90;;;;;;5093795;28;20200;-61
2023/05/11 09:30:19;;;;;;;8.18;1.90;;;16.00;99.90;;;;;;5093323;28;20176;-61
2023/05/11 09:32:49;;;;;;;17.67;2.70;;;15.90;99.90;;;;;;5093720;28;20175;-61
2023/05/11 09:35:29;;;;;;;9.15;2.15;;;16.20;99.90;;;;;;5093564;28;20223;-63
2023/05/11 09:38:09;;;;;;;13.25;2.25;;;16.30;99.90;;;;;;5093800;28;20206;-63
2023/05/11 09:40:49;;;;;;;12.05;2.47;;;17.10;99.90;;;;;;5093641;28;20168;-60
2023/05/11 09:43:18;;;;;;;10.20;1.95;;;17.90;99.90;;;;;;5093448;28;20248;-63
2023/05/11 09:45:46;;;;;;;8.15;3.55;;;17.70;1.00;;;;;;5093427;28;20704;-62
2023/05/11 09:48:32;;;;;;;9.45;1.98;;;18.30;99.90;;;;;;5093481;28;20207;-62
2023/05/11 09:51:06;;;;;;;6.05;1.60;;;18.00;1.00;;;;;;5093370;28;20531;-62
2023/05/11 09:53:41;;;;;;;5.80;1.92;;;18.20;99.90;;;;;;5093317;28;20180;-61
2023/05/11 09:56:07;;;;;;;7.93;1.55;;;17.90;1.00;;;;;;5093094;28;20167;-61
2023/05/11 09:58:54;;;;;;;4.28;1.35;;;17.50;7.30;;;;;;5092967;28;20216;-61
2023/05/11 10:01:33;;;;;;;7.95;1.15;;;17.00;1.00;;;;;;5092804;28;20171;-61
2023/05/11 10:04:02;;;;;;;6.63;1.63;;;16.70;1.00;;;;;;5092925;28;20187;-61
2023/05/11 10:06:42;;;;;;;4.38;1.20;;;16.70;99.90;;;;;;5092820;28;20252;-61
2023/05/11 10:09:09;;;;;;;4.95;1.30;;;16.80;1.00;;;;;;5093415;28;20180;-61
2023/05/11 10:11:36;;;;;;;6.57;1.30;;;18.80;99.90;;;;;;5092640;28;20254;-62
2023/05/11 10:14:02;;;;;;;5.18;1.20;;;17.20;99.90;;;;;;5092822;28;20168;-62
2023/05/11 10:16:28;;;;;;;3.58;1.00;;;16.60;1.00;;;;;;5092832;28;20194;-62
2023/05/11 10:18:54;;;;;;;10.05;1.33;;;16.40;1.00;;;;;;5092714;28;20616;-62
2023/05/11 10:21:20;;;;;;;5.88;1.45;;;16.90;99.90;;;;;;5092829;28;20172;-62
2023/05/11 10:23:46;;;;;;;7.70;1.30;;;16.90;1.00;;;;;;5092760;28;20188;-62
2023/05/11 10:26:12;;;;;;;4.45;1.00;;;16.90;1.00;;;;;;5092598;28;20168;-62
2023/05/11 10:28:38;;;;;;;4.25;0.90;;;17.40;1.00;;;;;;5092327;28;20180;-62
2023/05/11 10:31:04;;;;;;;3.60;1.17;;;18.40;99.90;;;;;;5092394;28;20168;-62
2023/05/11 10:33:31;;;;;;;3.65;1.10;;;19.30;1.00;;;;;;5092362;28;20223;-62
2023/05/11 10:35:56;;;;;;;2.85;0.90;;;19.80;99.90;;;;;;5092313;28;20172;-62
2023/05/11 10:38:24;;;;;;;5.80;1.05;;;19.70;1.00;;;;;;5092318;28;20261;-62
2023/05/11 10:40:53;;;;;;;4.35;1.30;;;19.10;1.00;;;;;;5091581;28;20176;-62
2023/05/11 10:43:51;;;;;;;2.53;0.88;;;19.50;1.00;;;;;;5092146;28;20176;-62
2023/05/11 10:46:25;;;;;;;2.38;0.85;;;19.90;1.00;;;;;;5092114;28;20257;-62
2023/05/11 10:49:10;;;;;;;5.90;1.08;;;19.70;99.90;;;;;;5092259;28;20175;-63
2023/05/11 10:52:00;;;;;;;4.78;1.27;;;18.60;99.90;;;;;;5092219;28;20255;-63
2023/05/11 10:54:37;;;;;;;5.78;1.50;;;19.30;1.00;;;;;;5092207;28;20232;-63
2023/05/11 10:57:11;;;;;;;6.20;0.90;;;20.70;1.00;;;;;;5073916;28;20671;-63
2023/05/11 11:00:29;;;;;;;5.20;0.85;;;20.80;1.00;;;;;;5092067;28;20187;-63
2023/05/11 11:02:56;;;;;;;3.10;0.55;;;20.80;1.00;;;;;;5092083;28;20262;-63
2023/05/11 11:05:33;;;;;;;3.08;0.90;;;21.70;1.00;;;;;;5091814;28;20168;-63
2023/05/11 11:08:02;;;;;;;2.60;0.75;;;20.90;99.90;;;;;;5091900;28;20219;-63
2023/05/11 11:10:40;;;;;;;62.20;5.53;;;20.00;1.00;;;;;;5091684;28;20176;-61
2023/05/11 11:13:07;;;;;;;5.50;1.42;;;19.20;1.00;;;;;;5076154;28;20640;-62
2023/05/11 11:15:54;;;;;;;38.22;4.90;;;18.30;1.00;;;;;;5071504;28;20170;-63
2023/05/11 11:18:24;;;;;;;13.75;1.42;;;18.50;1.00;;;;;;5071444;28;20168;-62
2023/05/11 11:20:52;;;;;;;6.35;1.33;;;18.90;1.00;;;;;;5071403;28;20173;-61
2023/05/11 11:23:48;;;;;;;8.73;1.30;;;19.20;1.00;;;;;;5071192;28;20200;-61
2023/05/11 11:26:35;;;;;;;13.63;1.20;;;18.60;1.00;;;;;;5054569;28;20195;-61
2023/05/11 11:29:07;;;;;;;4.35;0.95;;;18.40;1.00;;;;;;5070437;28;20176;-61
2023/05/11 11:31:33;;;;;;;4.95;1.10;;;19.20;1.00;;;;;;5071186;28;20185;-62
2023/05/11 11:34:27;;;;;;;19.17;2.10;;;19.00;1.00;;;;;;5071180;28;20220;-62
2023/05/11 11:37:05;;;;;;;3.55;0.93;;;18.90;1.00;;;;;;5071017;28;20203;-64
2023/05/11 11:39:41;;;;;;;5.53;1.00;;;18.90;1.00;;;;;;5071146;28;20199;-63
2023/05/11 11:42:11;;;;;;;4.50;1.27;;;20.20;1.00;;;;;;5071054;28;20251;-62
2023/05/11 11:44:38;;;;;;;8.25;1.13;;;21.50;1.00;;;;;;5071014;28;20186;-62
2023/05/11 11:47:15;;;;;;;12.45;1.52;;;21.30;99.90;;;;;;5070761;28;20204;-63
2023/05/11 11:49:46;;;;;;;17.15;1.60;;;20.70;99.90;;;;;;5071103;28;20180;-62
2023/05/11 11:52:34;;;;;;;5.57;1.13;;;20.10;99.90;;;;;;5070659;28;20234;-62
2023/05/11 11:55:02;;;;;;;5.35;1.20;;;19.20;99.90;;;;;;5060452;28;20261;-62
2023/05/11 11:57:33;;;;;;;4.97;0.70;;;19.10;99.90;;;;;;5081278;28;20654;-62
2023/05/11 12:00:05;;;;;;;2.75;0.85;;;19.20;99.90;;;;;;5090997;28;20655;-62
2023/05/11 12:02:32;;;;;;;3.10;0.90;;;19.00;50.60;;;;;;5091070;28;20326;-62
2023/05/11 12:05:06;;;;;;;5.45;0.80;;;19.80;99.90;;;;;;5090983;28;20251;-62
2023/05/11 12:07:33;;;;;;;6.95;0.90;;;20.10;99.90;;;;;;5090998;28;20248;-63
2023/05/11 12:10:02;;;;;;;5.35;1.15;;;21.10;21.00;;;;;;5091204;28;20191;-62
2023/05/11 12:12:30;;;;;;;7.22;1.13;;;20.80;1.00;;;;;;5090726;28;20644;-62
2023/05/11 12:14:56;;;;;;;9.30;1.55;;;21.60;1.00;;;;;;5090826;28;20219;-63
2023/05/11 12:17:24;;;;;;;4.07;0.93;;;23.00;1.00;;;;;;5090765;28;20164;-64
2023/05/11 12:19:50;;;;;;;5.82;1.30;;;23.70;1.00;;;;;;5090957;28;20183;-63
2023/05/11 12:22:23;;;;;;;5.68;1.33;;;23.30;1.00;;;;;;5091035;28;20172;-63
2023/05/11 12:24:49;;;;;;;9.30;1.50;;;22.50;1.00;;;;;;5090781;28;20164;-63
2023/05/11 12:27:18;;;;;;;5.93;1.67;;;21.20;1.00;;;;;;5072370;28;20223;-63
2023/05/11 12:29:51;;;;;;;7.38;1.60;;;19.40;1.00;;;;;;5076147;28;20188;-63
2023/05/11 12:32:30;;;;;;;7.38;1.65;;;19.60;1.00;;;;;;5070245;28;20172;-63
2023/05/11 12:35:00;;;;;;;3.72;1.20;;;20.30;99.90;;;;;;5080449;28;20218;-63
2023/05/11 12:37:27;;;;;;;5.75;1.40;;;20.90;1.00;;;;;;5090715;28;20183;-64
2023/05/11 12:39:54;;;;;;;5.80;1.60;;;22.20;1.00;;;;;;5090461;28;20172;-63
2023/05/11 12:42:20;;;;;;;5.22;1.60;;;22.50;1.00;;;;;;5074797;28;20171;-64
2023/05/11 12:44:46;;;;;;;2.83;1.13;;;22.00;1.00;;;;;;5076483;28;20671;-63
2023/05/11 12:47:12;;;;;;;9.07;1.50;;;21.60;1.00;;;;;;5085488;28;20214;-64